Time;durP1;ratioP1;P1;durP2;ratioP2;P2;SDS_P1;SDS_P2;PMS_P1;PMS_P2;Temp;Humidity;BMP_temperature;BMP_pressure;BME280_temperature;BME280_humidity;BME280_pressure;Samples;Min_cycle;Max_cycle;Signal;HPM_P1;HPM_P2
2022/07/05 00:02:10;;;;;;;9.95;7.40;;;;;;;15.78;70.19;102054.81;4991975;28;20057;-70
2022/07/05 00:04:35;;;;;;;12.20;7.35;;;;;;;15.75;69.82;102052.44;4999110;28;20023;-70
2022/07/05 00:07:18;;;;;;;11.20;8.07;;;;;;;15.73;70.00;102051.75;4996792;28;20055;-70
2022/07/05 00:09:56;;;;;;;11.05;7.85;;;;;;;15.66;70.93;102053.25;4986880;28;20022;-69
2022/07/05 00:12:27;;;;;;;11.13;7.78;;;;;;;15.62;71.58;102036.09;4988002;28;20022;-69
2022/07/05 00:14:53;;;;;;;10.95;7.85;;;;;;;15.65;71.84;102046.31;5000217;28;20113;-69
2022/07/05 00:17:19;;;;;;;10.98;8.45;;;;;;;15.55;72.29;102050.66;5005254;28;20073;-69
2022/07/05 00:19:45;;;;;;;13.82;8.88;;;;;;;15.63;71.82;102053.47;5002376;28;20505;-69
2022/07/05 00:22:10;;;;;;;11.70;8.45;;;;;;;15.59;71.73;102055.47;5020239;28;20033;-69
2022/07/05 00:24:36;;;;;;;9.93;7.93;;;;;;;15.54;72.09;102039.38;5003801;28;20026;-70
2022/07/05 00:27:01;;;;;;;10.50;8.13;;;;;;;15.63;72.63;102048.25;4993198;28;20033;-69
2022/07/05 00:29:27;;;;;;;8.45;7.55;;;;;;;15.60;72.60;102048.50;5000122;28;20030;-69
2022/07/05 00:31:53;;;;;;;10.10;7.90;;;;;;;15.64;72.15;102049.91;4999588;28;20056;-69
2022/07/05 00:34:18;;;;;;;10.32;7.70;;;;;;;15.64;71.69;102044.66;4996223;28;20022;-69
2022/07/05 00:36:43;;;;;;;10.00;8.27;;;;;;;15.50;71.72;102026.66;5005623;28;20096;-69
2022/07/05 00:39:09;;;;;;;10.18;8.07;;;;;;;15.69;72.16;102042.50;4991929;28;20502;-69
2022/07/05 00:41:35;;;;;;;11.88;8.43;;;;;;;15.60;72.32;102053.72;4997323;28;20037;-69
2022/07/05 00:44:04;;;;;;;10.25;7.95;;;;;;;15.63;71.42;102048.25;5003582;28;20022;-69
2022/07/05 00:46:30;;;;;;;9.38;8.05;;;;;;;15.46;72.46;102047.00;5004446;28;20038;-69
2022/07/05 00:48:57;;;;;;;10.05;8.75;;;;;;;15.29;72.47;102058.03;4991111;28;20600;-69
2022/07/05 00:51:24;;;;;;;10.68;9.57;;;;;;;15.31;72.06;102056.94;4998173;28;20032;-69
2022/07/05 00:53:50;;;;;;;11.27;10.07;;;;;;;15.23;72.07;102051.50;4991179;28;20034;-69
2022/07/05 00:56:18;;;;;;;11.07;9.98;;;;;;;15.17;72.35;102048.56;5007153;28;20037;-69
2022/07/05 00:58:43;;;;;;;11.77;10.15;;;;;;;15.04;72.40;102027.84;5008873;28;20037;-69
2022/07/05 01:01:10;;;;;;;11.88;10.70;;;;;;;15.16;72.53;102055.59;5000092;28;20038;-69
2022/07/05 01:03:36;;;;;;;11.50;10.15;;;;;;;15.13;73.14;102054.03;4998732;28;20553;-69
2022/07/05 01:06:04;;;;;;;11.30;10.18;;;;;;;15.15;73.25;102053.94;5002511;28;20071;-68
2022/07/05 01:08:33;;;;;;;11.98;10.70;;;;;;;14.88;73.87;102052.59;5006416;28;20022;-74
2022/07/05 01:10:58;;;;;;;12.02;10.73;;;;;;;15.04;73.12;102051.34;4994104;28;20030;-69
2022/07/05 01:13:25;;;;;;;12.60;11.38;;;;;;;15.06;73.72;102054.66;5001468;28;20033;-69
2022/07/05 01:15:51;;;;;;;12.35;11.10;;;;;;;14.99;73.70;102053.50;5002414;28;20042;-69
2022/07/05 01:18:19;;;;;;;12.05;10.80;;;;;;;14.98;73.79;102057.91;4997110;28;20052;-69
2022/07/05 01:20:48;;;;;;;12.07;10.88;;;;;;;15.02;73.42;102048.03;5005804;28;20037;-69
2022/07/05 01:23:13;;;;;;;12.93;11.73;;;;;;;14.99;73.15;102056.13;5001456;28;20034;-69
2022/07/05 01:25:38;;;;;;;12.95;11.80;;;;;;;14.88;73.63;102042.13;5002756;28;20033;-69
2022/07/05 01:28:04;;;;;;;12.93;11.73;;;;;;;14.84;73.42;102048.53;5005344;28;20033;-69
2022/07/05 01:30:33;;;;;;;13.27;12.07;;;;;;;14.84;73.31;102045.94;5001694;28;20026;-69
2022/07/05 01:32:58;;;;;;;13.50;12.30;;;;;;;14.84;73.49;102051.16;4998928;28;20025;-69
2022/07/05 01:35:24;;;;;;;13.95;12.55;;;;;;;14.78;74.70;102051.66;5007157;28;20096;-68
2022/07/05 01:37:51;;;;;;;12.95;11.85;;;;;;;14.73;74.55;102038.13;5003499;28;20803;-69
2022/07/05 01:40:18;;;;;;;13.88;12.48;;;;;;;14.81;75.11;102042.75;5006280;28;20363;-69
2022/07/05 01:42:44;;;;;;;13.95;12.55;;;;;;;14.86;74.36;102044.06;5004143;28;20061;-68
2022/07/05 01:45:10;;;;;;;13.70;12.40;;;;;;;14.71;74.48;102050.50;5003427;28;20034;-68
2022/07/05 01:47:38;;;;;;;15.02;13.65;;;;;;;14.74;75.01;102055.47;4999522;28;20394;-68
2022/07/05 01:50:07;;;;;;;14.30;13.00;;;;;;;14.86;74.90;102051.88;5004434;28;20440;-68
2022/07/05 01:52:35;;;;;;;14.48;13.18;;;;;;;14.83;74.52;102033.84;5000882;28;20034;-68
2022/07/05 01:55:01;;;;;;;14.80;13.40;;;;;;;14.84;74.06;102037.28;4994979;28;20105;-68
2022/07/05 01:57:27;;;;;;;14.35;13.15;;;;;;;14.85;74.54;102042.41;4988564;28;20026;-68
2022/07/05 01:59:53;;;;;;;14.52;13.23;;;;;;;14.86;74.61;102038.81;4994453;28;20085;-69
2022/07/05 02:02:18;;;;;;;14.80;13.50;;;;;;;14.91;74.51;102040.22;5005969;28;20137;-68
2022/07/05 02:04:44;;;;;;;14.10;12.80;;;;;;;14.76;74.10;102032.66;5005150;28;20021;-70
2022/07/05 02:07:09;;;;;;;13.68;12.30;;;;;;;14.77;74.73;102034.31;5005716;28;20049;-69
2022/07/05 02:09:35;;;;;;;14.77;13.48;;;;;;;14.51;75.59;102048.63;5003414;28;20026;-69
2022/07/05 02:12:02;;;;;;;14.45;13.15;;;;;;;14.54;75.03;102051.00;5004118;28;20500;-68
2022/07/05 02:14:28;;;;;;;15.73;14.32;;;;;;;14.56;75.10;102047.28;4989342;28;20062;-68
2022/07/05 02:16:54;;;;;;;15.60;14.30;;;;;;;14.42;75.83;102044.09;4988113;28;20069;-69
2022/07/05 02:19:19;;;;;;;15.25;13.80;;;;;;;14.40;75.70;102048.63;5001773;28;20508;-68
2022/07/05 02:21:44;;;;;;;15.93;14.35;;;;;;;14.35;75.51;102039.34;4996401;28;20022;-68
2022/07/05 02:24:10;;;;;;;16.95;15.35;;;;;;;14.43;75.89;102045.75;4998129;28;20533;-68
2022/07/05 02:26:35;;;;;;;16.05;14.65;;;;;;;14.43;75.92;102036.13;4999903;28;20100;-68
2022/07/05 02:29:03;;;;;;;17.10;15.50;;;;;;;14.45;75.92;102034.25;5005303;28;20514;-68
2022/07/05 02:31:28;;;;;;;16.67;15.02;;;;;;;14.49;75.58;102037.47;4999603;28;20022;-68
2022/07/05 02:33:53;;;;;;;16.52;15.10;;;;;;;14.29;76.67;102039.84;5004467;28;20061;-68
2022/07/05 02:36:19;;;;;;;17.48;15.85;;;;;;;14.06;76.34;102012.09;4988395;28;20364;-68
2022/07/05 02:38:45;;;;;;;17.63;16.05;;;;;;;14.27;76.36;102039.09;5000694;28;20036;-68
2022/07/05 02:41:11;;;;;;;17.70;16.20;;;;;;;14.31;76.71;102058.81;4991751;28;20402;-68
2022/07/05 02:43:38;;;;;;;18.20;16.63;;;;;;;14.33;77.02;102056.91;4998773;28;20077;-68
2022/07/05 02:46:04;;;;;;;18.38;16.75;;;;;;;14.23;77.73;102058.59;5000426;28;20018;-68
2022/07/05 02:48:30;;;;;;;18.88;17.25;;;;;;;14.34;77.65;102050.75;5005774;28;20049;-68
2022/07/05 02:50:56;;;;;;;18.15;16.55;;;;;;;14.43;77.18;102045.75;5004580;28;20097;-68
2022/07/05 02:53:22;;;;;;;19.17;17.48;;;;;;;14.45;78.07;102049.06;4991832;28;20125;-68
2022/07/05 02:55:47;;;;;;;18.90;17.30;;;;;;;14.40;77.93;102051.22;5010977;28;20475;-68
2022/07/05 02:58:13;;;;;;;19.60;17.90;;;;;;;14.44;77.84;102060.47;4988058;28;20319;-68
2022/07/05 03:00:38;;;;;;;17.50;16.00;;;;;;;14.53;77.47;102054.56;5004321;28;20101;-68
2022/07/05 03:03:03;;;;;;;17.27;15.68;;;;;;;14.55;76.93;102050.03;5004357;28;20061;-68
2022/07/05 03:05:29;;;;;;;18.35;16.65;;;;;;;14.53;77.56;102067.63;5009116;28;20030;-68
2022/07/05 03:07:54;;;;;;;17.63;16.08;;;;;;;14.54;77.55;102053.59;4994823;28;20022;-69
2022/07/05 03:10:20;;;;;;;16.48;15.05;;;;;;;14.64;76.64;102059.78;4999023;28;20037;-68
2022/07/05 03:12:45;;;;;;;17.63;16.08;;;;;;;14.53;77.08;102067.63;4992061;28;20061;-68
2022/07/05 03:15:10;;;;;;;17.83;16.35;;;;;;;14.52;77.07;102065.97;5001938;28;20075;-68
2022/07/05 03:17:36;;;;;;;18.55;16.92;;;;;;;14.54;77.19;102066.66;4987079;28;20034;-68
2022/07/05 03:20:01;;;;;;;18.95;17.27;;;;;;;14.57;77.25;102058.59;5001336;28;20480;-68
2022/07/05 03:22:27;;;;;;;19.13;17.42;;;;;;;14.51;77.64;102064.31;5019472;28;20072;-68
2022/07/05 03:24:52;;;;;;;19.98;18.05;;;;;;;14.35;78.47;102069.84;5006519;28;20026;-68
2022/07/05 03:27:17;;;;;;;21.10;19.15;;;;;;;14.44;78.05;102068.28;5005100;28;20116;-68
2022/07/05 03:29:43;;;;;;;19.75;17.90;;;;;;;14.43;78.00;102069.25;4996750;28;20022;-68
2022/07/05 03:32:08;;;;;;;21.08;19.17;;;;;;;14.43;78.32;102079.69;5004031;28;20018;-68
2022/07/05 03:34:33;;;;;;;22.52;20.52;;;;;;;14.42;78.40;102080.66;5003804;28;20021;-68
2022/07/05 03:36:59;;;;;;;23.10;21.00;;;;;;;14.45;77.85;102081.25;5004414;28;20028;-68
2022/07/05 03:39:24;;;;;;;22.88;20.55;;;;;;;14.26;78.44;102071.38;5019858;28;20112;-68
2022/07/05 03:41:49;;;;;;;22.92;20.73;;;;;;;14.40;78.56;102083.38;5004027;28;20109;-68
2022/07/05 03:44:15;;;;;;;23.38;21.25;;;;;;;14.38;79.13;102079.22;5003543;28;20469;-68
2022/07/05 03:46:40;;;;;;;23.65;21.60;;;;;;;14.44;78.56;102083.94;4995102;28;20041;-69
2022/07/05 03:49:05;;;;;;;24.35;21.92;;;;;;;14.43;78.81;102083.13;4994078;28;20026;-68
2022/07/05 03:51:31;;;;;;;23.05;20.98;;;;;;;14.49;78.45;102074.84;5003328;28;20026;-68
2022/07/05 03:53:56;;;;;;;24.35;22.15;;;;;;;14.36;79.41;102079.34;5005382;28;20034;-68
2022/07/05 03:56:22;;;;;;;24.38;22.27;;;;;;;14.43;79.44;102072.69;5004573;28;20022;-68
2022/07/05 03:58:51;;;;;;;24.25;22.05;;;;;;;14.53;79.62;102094.56;5005120;28;20033;-68
2022/07/05 04:01:16;;;;;;;25.20;22.90;;;;;;;14.58;79.30;102094.19;5003018;28;20497;-68
2022/07/05 04:03:42;;;;;;;25.48;23.15;;;;;;;14.52;79.22;102076.41;4995816;28;20077;-68
2022/07/05 04:06:09;;;;;;;25.08;22.77;;;;;;;14.59;79.39;102093.25;4990629;28;20038;-68
2022/07/05 04:08:34;;;;;;;26.05;23.52;;;;;;;14.59;79.22;102093.25;4991885;28;20105;-71
2022/07/05 04:11:00;;;;;;;25.63;23.23;;;;;;;14.54;79.88;102090.16;4994840;28;20030;-68
2022/07/05 04:13:25;;;;;;;25.45;23.25;;;;;;;14.57;79.17;102069.03;4990485;28;20025;-68
2022/07/05 04:15:53;;;;;;;26.90;24.50;;;;;;;14.74;79.09;102086.81;4992831;28;20090;-68
2022/07/05 04:18:18;;;;;;;26.48;24.17;;;;;;;14.70;79.52;102095.84;5002656;28;20537;-68
2022/07/05 04:20:44;;;;;;;26.02;23.73;;;;;;;14.77;79.15;102097.00;4995285;28;20065;-68
2022/07/05 04:23:09;;;;;;;26.80;24.40;;;;;;;14.82;79.14;102088.81;4992791;28;20104;-68
2022/07/05 04:25:34;;;;;;;24.92;22.63;;;;;;;14.82;78.93;102100.09;4996838;28;20021;-68
2022/07/05 04:28:00;;;;;;;24.45;22.25;;;;;;;14.70;79.65;102095.00;4999525;28;20031;-68
2022/07/05 04:30:25;;;;;;;25.27;23.05;;;;;;;14.77;78.70;102094.41;4997006;28;20077;-69
2022/07/05 04:32:51;;;;;;;19.50;17.75;;;;;;;14.82;78.24;102088.81;5008635;28;20049;-69
2022/07/05 04:35:16;;;;;;;18.02;16.33;;;;;;;14.85;78.20;102099.88;5006893;28;20030;-69
2022/07/05 04:37:42;;;;;;;19.73;17.92;;;;;;;14.84;77.83;102092.94;4989717;28;20455;-68
2022/07/05 04:40:11;;;;;;;20.88;19.02;;;;;;;14.87;78.30;102097.94;5000026;28;20470;-69
2022/07/05 04:42:37;;;;;;;;;;;;;;;15.07;77.27;102098.13;5005955;28;20478;-67
2022/07/05 04:45:03;;;;;;;21.92;19.92;;;;;;;14.92;78.50;102096.75;4991651;28;19909;-68
2022/07/05 04:47:29;;;;;;;23.40;21.20;;;;;;;14.82;78.81;102088.81;4989829;28;20034;-68
2022/07/05 04:49:57;;;;;;;23.05;20.88;;;;;;;14.91;78.37;102097.69;5003527;28;20025;-67
2022/07/05 04:52:22;;;;;;;22.63;20.52;;;;;;;14.97;78.21;102105.88;5000455;28;20756;-67
2022/07/05 04:54:48;;;;;;;22.05;20.13;;;;;;;15.00;78.44;102102.19;5004989;28;20069;-68
2022/07/05 04:57:13;;;;;;;21.73;19.75;;;;;;;15.01;78.39;102109.06;4989914;28;20034;-70
2022/07/05 04:59:39;;;;;;;20.42;18.52;;;;;;;15.00;78.55;102107.41;5002387;28;20056;-68
2022/07/05 05:02:04;;;;;;;20.15;18.25;;;;;;;14.95;78.08;102099.94;4993587;28;20061;-68
2022/07/05 05:04:30;;;;;;;17.83;16.23;;;;;;;15.02;78.23;102121.19;5007713;28;20029;-68
2022/07/05 05:06:55;;;;;;;18.88;17.17;;;;;;;15.01;78.51;102114.28;4995247;28;20473;-68
2022/07/05 05:09:21;;;;;;;18.73;16.85;;;;;;;15.02;78.00;102115.94;5006971;28;20034;-71
2022/07/05 05:11:47;;;;;;;20.52;18.63;;;;;;;14.88;78.50;102099.59;5004587;28;20976;-68
2022/07/05 05:14:12;;;;;;;21.50;19.50;;;;;;;14.91;79.33;102116.84;4996502;28;20049;-67
2022/07/05 05:16:38;;;;;;;21.40;19.38;;;;;;;14.94;79.19;102120.97;5003949;28;20426;-69
2022/07/05 05:19:03;;;;;;;22.27;20.30;;;;;;;14.91;78.79;102114.22;4999142;28;20117;-67
2022/07/05 05:21:29;;;;;;;23.20;21.17;;;;;;;15.03;79.00;102113.25;4989689;28;20034;-68
2022/07/05 05:23:54;;;;;;;25.02;22.70;;;;;;;15.01;79.52;102109.06;5005865;28;20040;-67
2022/07/05 05:26:19;;;;;;;23.60;21.45;;;;;;;15.08;79.60;102115.47;4998603;28;20058;-68
2022/07/05 05:28:45;;;;;;;23.58;21.17;;;;;;;15.03;79.42;102101.97;5005456;28;20043;-68
2022/07/05 05:31:10;;;;;;;21.50;19.52;;;;;;;15.15;78.91;102114.03;5008168;28;20499;-67
2022/07/05 05:33:36;;;;;;;21.75;19.83;;;;;;;15.12;79.41;102107.25;5005838;28;20029;-68
2022/07/05 05:36:02;;;;;;;20.63;18.70;;;;;;;15.17;78.46;102125.19;4996315;28;20033;-68
2022/07/05 05:38:28;;;;;;;22.08;19.98;;;;;;;15.18;79.54;102126.84;4993897;28;20041;-68
2022/07/05 05:40:53;;;;;;;20.55;18.50;;;;;;;15.30;78.40;102131.06;5004747;28;20061;-68
2022/07/05 05:43:19;;;;;;;20.52;18.52;;;;;;;15.30;78.01;102123.22;5005928;28;20374;-68
2022/07/05 05:45:44;;;;;;;21.25;19.15;;;;;;;15.28;79.45;102127.75;4996408;28;20241;-68
2022/07/05 05:48:10;;;;;;;19.55;17.65;;;;;;;15.44;78.67;102127.34;5002560;28;20053;-68
2022/07/05 05:50:38;;;;;;;20.02;18.00;;;;;;;15.49;77.74;102119.16;4988400;28;20133;-68
2022/07/05 05:53:04;;;;;;;18.75;17.00;;;;;;;15.53;77.19;102120.53;5002242;28;20459;-68
2022/07/05 05:55:31;;;;;;;19.02;17.10;;;;;;;15.46;77.50;102119.38;4995691;28;20034;-68
2022/07/05 05:57:57;;;;;;;19.70;17.70;;;;;;;15.55;77.85;102123.88;5006786;28;20045;-68
2022/07/05 06:00:23;;;;;;;18.23;16.42;;;;;;;15.54;77.91;102127.41;4994035;28;20037;-67
2022/07/05 06:02:50;;;;;;;18.77;17.08;;;;;;;15.50;77.91;102131.25;4997691;28;20046;-68
2022/07/05 06:05:15;;;;;;;18.52;16.83;;;;;;;15.52;77.66;102129.34;4995271;28;20065;-69
2022/07/05 06:07:51;;;;;;;17.67;16.08;;;;;;;15.60;77.84;102137.41;4998727;28;20053;-68
2022/07/05 06:10:23;;;;;;;18.70;16.90;;;;;;;15.59;77.74;102140.94;4988619;28;20022;-68
2022/07/05 06:12:49;;;;;;;17.02;15.40;;;;;;;15.65;76.91;102136.09;4994879;28;20148;-68
2022/07/05 06:15:15;;;;;;;16.67;14.98;;;;;;;15.74;77.29;102137.13;5004025;28;20505;-67
2022/07/05 06:17:41;;;;;;;15.82;14.13;;;;;;;15.77;76.53;102129.03;4998783;28;20026;-68
2022/07/05 06:20:12;;;;;;;14.60;13.18;;;;;;;15.98;75.48;102146.50;5002251;28;20483;-68
2022/07/05 06:22:37;;;;;;;15.55;14.13;;;;;;;16.03;75.07;102146.94;5005122;28;20056;-68
2022/07/05 06:25:04;;;;;;;14.45;13.10;;;;;;;16.11;75.30;102141.88;5001532;28;20478;-68
2022/07/05 06:27:29;;;;;;;14.05;12.57;;;;;;;16.19;74.44;102144.72;5005782;28;20072;-68
2022/07/05 06:29:55;;;;;;;13.98;12.48;;;;;;;16.28;74.04;102154.38;4995676;28;20019;-68
2022/07/05 06:32:20;;;;;;;13.88;12.07;;;;;;;16.19;74.31;102155.19;4991724;28;20026;-67
2022/07/05 06:34:46;;;;;;;13.50;12.20;;;;;;;16.29;73.37;102158.69;5008093;28;20109;-68
2022/07/05 06:37:12;;;;;;;13.35;11.25;;;;;;;16.38;72.87;102160.50;5000005;28;20088;-68
2022/07/05 06:39:37;;;;;;;13.57;12.18;;;;;;;16.43;72.75;102153.09;5001364;28;20034;-68
2022/07/05 06:42:03;;;;;;;13.07;11.63;;;;;;;16.58;71.88;102155.38;5005269;28;20417;-69
2022/07/05 06:44:28;;;;;;;13.35;11.57;;;;;;;16.57;71.21;102148.44;4994793;28;20030;-69
2022/07/05 06:46:53;;;;;;;14.15;12.70;;;;;;;16.66;71.75;102158.16;4992595;28;20034;-69
2022/07/05 06:49:19;;;;;;;13.27;11.18;;;;;;;16.66;70.41;102150.28;5004740;28;20021;-69
2022/07/05 06:51:44;;;;;;;12.25;10.95;;;;;;;16.76;69.96;102156.44;4999279;28;20053;-70
2022/07/05 06:54:09;;;;;;;11.93;10.57;;;;;;;16.75;69.53;102162.63;4994584;28;20026;-69
2022/07/05 06:56:35;;;;;;;12.35;10.43;;;;;;;16.77;69.35;102160.69;4993604;28;20827;-69
2022/07/05 06:59:00;;;;;;;12.90;11.00;;;;;;;16.81;69.44;102162.09;4989579;28;20373;-69
2022/07/05 07:01:25;;;;;;;12.27;11.02;;;;;;;16.86;69.84;102159.06;4993661;28;20466;-69
2022/07/05 07:03:51;;;;;;;13.55;11.48;;;;;;;16.86;69.20;102159.91;4991296;28;20088;-70
2022/07/05 07:06:16;;;;;;;13.15;11.75;;;;;;;16.75;71.98;102162.63;4994541;28;20268;-70
2022/07/05 07:11:26;;;;;;;15.23;12.27;;;;;;;17.18;70.57;102169.34;4992374;28;20037;-69
2022/07/05 07:13:52;;;;;;;17.25;11.52;;;;;;;17.18;69.68;102164.94;4995499;28;20026;-69
2022/07/05 07:16:17;;;;;;;12.23;11.02;;;;;;;17.35;68.90;102166.06;4995997;28;20495;-70
2022/07/05 07:18:42;;;;;;;13.05;11.73;;;;;;;17.41;69.05;102162.91;4991477;28;20047;-69
2022/07/05 07:21:08;;;;;;;14.35;11.88;;;;;;;17.35;67.93;102155.56;4995213;28;20136;-69
2022/07/05 07:23:33;;;;;;;11.77;10.55;;;;;;;17.64;67.67;102160.00;4993005;28;20062;-69
2022/07/05 07:25:58;;;;;;;12.50;10.98;;;;;;;17.70;67.84;102162.06;4996300;28;20405;-69
2022/07/05 07:28:24;;;;;;;13.05;11.77;;;;;;;17.75;67.19;102167.75;4999018;28;20041;-69
2022/07/05 07:30:49;;;;;;;13.07;11.73;;;;;;;17.77;66.79;102165.81;4991699;28;20462;-69
2022/07/05 07:33:15;;;;;;;11.77;10.55;;;;;;;17.88;67.38;102178.78;4997903;28;20022;-70
2022/07/05 07:35:40;;;;;;;11.02;9.93;;;;;;;17.93;67.78;102176.56;4988003;28;20081;-69
2022/07/05 07:38:06;;;;;;;11.25;10.15;;;;;;;17.91;67.95;102173.28;4993171;28;20027;-69
2022/07/05 07:40:31;;;;;;;11.18;10.07;;;;;;;18.09;67.58;102172.56;4983894;28;20019;-70
2022/07/05 07:42:57;;;;;;;11.93;10.40;;;;;;;18.24;66.54;102181.66;4999264;28;20041;-69
2022/07/05 07:45:22;;;;;;;11.70;10.02;;;;;;;18.20;67.13;102177.66;4986773;28;20462;-69
2022/07/05 07:47:47;;;;;;;10.60;9.05;;;;;;;18.32;67.49;102176.50;4995894;28;20037;-69
2022/07/05 07:50:13;;;;;;;12.23;8.65;;;;;;;18.25;67.32;102170.16;4989162;28;20423;-70
2022/07/05 07:52:38;;;;;;;10.35;8.88;;;;;;;18.30;67.17;102186.34;4992884;28;20437;-70
2022/07/05 07:55:05;;;;;;;11.10;8.63;;;;;;;18.33;67.95;102177.31;4993566;28;20449;-70
2022/07/05 07:57:30;;;;;;;9.52;8.50;;;;;;;18.47;66.17;102185.59;4997225;28;20101;-69
2022/07/05 07:59:56;;;;;;;9.57;8.05;;;;;;;18.62;65.98;102182.47;4994680;28;20462;-69
2022/07/05 08:02:22;;;;;;;10.45;8.82;;;;;;;18.60;66.60;102173.91;5002368;28;20104;-69
2022/07/05 08:04:49;;;;;;;9.85;8.73;;;;;;;18.60;65.21;102189.69;4998660;28;20022;-70
2022/07/05 08:07:15;;;;;;;10.15;8.65;;;;;;;18.60;65.89;102184.44;5003009;28;20643;-69
2022/07/05 08:09:40;;;;;;;13.10;10.07;;;;;;;18.43;65.67;102178.97;5004261;28;20458;-70
2022/07/05 08:12:07;;;;;;;10.93;9.88;;;;;;;18.64;68.68;102191.03;4997105;28;20029;-70
2022/07/05 08:14:32;;;;;;;11.95;10.70;;;;;;;18.63;66.75;102194.63;4995986;28;20052;-69
2022/07/05 08:16:58;;;;;;;11.88;10.68;;;;;;;18.60;67.19;102190.50;4997958;28;20854;-70
2022/07/05 08:22:08;;;;;;;11.90;10.68;;;;;;;18.74;65.71;102191.84;5001938;28;20424;-70
2022/07/05 08:24:35;;;;;;;11.85;10.55;;;;;;;18.79;67.91;102192.25;4995576;28;20117;-69
2022/07/05 08:27:00;;;;;;;11.50;10.25;;;;;;;18.97;66.33;102177.34;5003417;28;20354;-70
2022/07/05 08:29:25;;;;;;;11.82;10.63;;;;;;;19.05;66.48;102187.97;4999913;28;20516;-70
2022/07/05 08:31:52;;;;;;;12.52;11.00;;;;;;;19.15;65.41;102189.69;5003044;28;20619;-70
2022/07/05 08:34:18;;;;;;;13.25;11.13;;;;;;;19.25;66.13;102188.66;5002648;28;20050;-70
2022/07/05 08:36:44;;;;;;;13.82;12.43;;;;;;;19.24;64.15;102184.38;4998872;28;20029;-70
2022/07/05 08:39:10;;;;;;;12.63;11.32;;;;;;;19.27;64.14;102183.28;5007582;28;20040;-70
2022/07/05 08:41:40;;;;;;;11.95;10.70;;;;;;;19.30;64.65;102193.50;5003549;28;20030;-70
2022/07/05 08:44:07;;;;;;;11.82;10.00;;;;;;;19.17;65.33;102187.78;5003372;28;20025;-70
2022/07/05 08:46:36;;;;;;;12.23;10.30;;;;;;;19.26;64.23;102189.50;4991160;28;20088;-70
2022/07/05 08:49:06;;;;;;;12.57;9.73;;;;;;;19.21;63.72;102175.94;5002177;28;20120;-70
2022/07/05 08:51:36;;;;;;;11.02;9.15;;;;;;;19.20;64.24;102182.19;4994500;28;20406;-70
2022/07/05 08:54:02;;;;;;;11.43;9.10;;;;;;;19.13;64.23;102175.88;5006885;28;20028;-69
2022/07/05 08:56:28;;;;;;;11.88;8.98;;;;;;;19.18;63.77;102178.91;5002536;28;20034;-70
2022/07/05 08:58:54;;;;;;;13.07;8.50;;;;;;;18.97;65.24;102177.34;5004155;28;20049;-70
2022/07/05 09:01:20;;;;;;;10.38;8.55;;;;;;;18.98;64.89;102167.66;4993237;28;20072;-70
2022/07/05 09:03:48;;;;;;;10.82;8.70;;;;;;;18.89;66.02;102169.38;5007602;28;20073;-70
2022/07/05 09:06:17;;;;;;;11.07;8.38;;;;;;;19.03;64.92;102186.44;4997379;28;20034;-71
2022/07/05 09:08:44;;;;;;;9.98;8.32;;;;;;;18.91;65.71;102196.34;4996097;28;20218;-70
2022/07/05 09:11:12;;;;;;;9.93;8.60;;;;;;;18.79;65.86;102189.63;5008828;28;20036;-70
2022/07/05 09:13:49;;;;;;;9.05;7.75;;;;;;;18.80;66.82;102202.63;5004213;28;20028;-70
2022/07/05 09:16:14;;;;;;;10.38;7.13;;;;;;;18.79;65.85;102187.00;5006413;28;20033;-70
2022/07/05 09:18:41;;;;;;;8.80;7.03;;;;;;;18.86;65.99;102195.94;5004855;28;20054;-70
2022/07/05 09:21:17;;;;;;;12.48;7.55;;;;;;;18.87;66.25;102197.63;4999563;28;20022;-70
2022/07/05 09:23:44;;;;;;;11.13;7.35;;;;;;;18.80;65.77;102196.53;4993866;28;20030;-71
2022/07/05 09:26:10;;;;;;;9.68;7.22;;;;;;;19.03;65.46;102187.28;5000785;28;20022;-70
2022/07/05 09:28:35;;;;;;;12.45;7.38;;;;;;;18.85;67.50;102183.78;5001742;28;20094;-70
2022/07/05 09:31:01;;;;;;;10.98;8.00;;;;;;;18.83;67.28;102191.00;5001494;28;20414;-70
2022/07/05 09:33:26;;;;;;;10.68;7.97;;;;;;;18.98;66.82;102200.06;5008380;28;20030;-67
2022/07/05 09:35:57;;;;;;;10.93;7.90;;;;;;;18.90;66.53;102199.94;5002744;28;20544;-67
2022/07/05 09:38:24;;;;;;;11.07;7.75;;;;;;;19.10;66.65;102201.50;4993627;28;20397;-67
2022/07/05 09:40:54;;;;;;;13.05;7.80;;;;;;;19.29;66.83;102197.09;4997325;28;20537;-68
2022/07/05 09:43:22;;;;;;;11.60;8.13;;;;;;;19.48;68.35;102202.22;5005888;28;20129;-67
2022/07/05 09:45:53;;;;;;;12.68;9.25;;;;;;;19.54;65.27;102196.34;5000780;28;20045;-68
2022/07/05 09:48:18;;;;;;;12.00;8.38;;;;;;;19.45;65.03;102192.00;4991211;28;20027;-67
2022/07/05 09:50:45;;;;;;;11.10;8.10;;;;;;;19.28;63.93;102187.56;5007985;28;20029;-67
2022/07/05 09:53:11;;;;;;;11.43;8.55;;;;;;;19.36;63.74;102203.41;4993581;28;20112;-68
2022/07/05 09:55:37;;;;;;;10.15;7.78;;;;;;;19.39;63.78;102192.59;4998776;28;20104;-67
2022/07/05 09:58:03;;;;;;;10.07;7.47;;;;;;;19.42;64.19;102205.44;4993457;28;20038;-67
2022/07/05 10:00:29;;;;;;;9.73;7.57;;;;;;;19.64;63.73;102201.56;4998120;28;20402;-67
2022/07/05 10:03:00;;;;;;;10.85;7.70;;;;;;;19.56;64.05;102199.69;4997266;28;20061;-67
2022/07/05 10:05:28;;;;;;;12.60;7.38;;;;;;;19.43;64.67;102193.94;5005013;28;20045;-67
2022/07/05 10:07:58;;;;;;;11.95;6.90;;;;;;;19.50;64.16;102202.91;4994924;28;20038;-67
2022/07/05 10:10:24;;;;;;;12.15;6.90;;;;;;;19.31;63.09;102203.84;5003424;28;20480;-67
2022/07/05 10:12:55;;;;;;;10.63;6.57;;;;;;;19.40;63.94;102209.22;4996411;28;20080;-67
2022/07/05 10:15:24;;;;;;;10.35;6.68;;;;;;;19.28;64.26;102211.22;5002602;28;20465;-67
2022/07/05 10:17:59;;;;;;;11.30;6.70;;;;;;;19.34;64.59;102211.47;5005155;28;20052;-68
2022/07/05 10:20:36;;;;;;;9.20;5.85;;;;;;;19.26;63.95;102218.44;5004947;28;20080;-68
2022/07/05 10:23:05;;;;;;;9.20;5.33;;;;;;;19.27;64.55;102204.31;4998169;28;20476;-68
2022/07/05 10:25:31;;;;;;;9.07;5.03;;;;;;;19.39;63.54;102184.72;5001840;28;20025;-67
2022/07/05 10:27:58;;;;;;;8.98;6.28;;;;;;;19.66;64.00;102209.31;4997129;28;20029;-68
2022/07/05 10:30:24;;;;;;;9.25;6.47;;;;;;;19.86;64.69;102195.03;4990648;28;20030;-67
2022/07/05 10:32:50;;;;;;;10.32;6.97;;;;;;;19.98;63.29;102199.06;4993235;28;20125;-67
2022/07/05 10:35:17;;;;;;;10.93;6.97;;;;;;;19.94;62.41;102187.16;4999266;28;20532;-69
2022/07/05 10:37:44;;;;;;;10.23;6.18;;;;;;;19.91;63.15;102197.19;4986575;28;20042;-67
2022/07/05 10:40:10;;;;;;;8.40;5.80;;;;;;;19.88;58.40;102203.59;4999220;28;20511;-68
2022/07/05 10:43:01;;;;;;;9.75;5.13;;;;;;;19.89;60.33;102195.53;4996463;28;20037;-68
2022/07/05 10:45:31;;;;;;;8.00;5.30;;;;;;;19.95;60.16;102201.97;4992794;28;20022;-69
2022/07/05 10:48:09;;;;;;;7.43;5.13;;;;;;;20.31;60.56;102204.56;4999211;28;21048;-68
2022/07/05 10:50:45;;;;;;;7.55;3.92;;;;;;;20.34;56.98;102206.88;5001939;28;20033;-68
2022/07/05 10:53:12;;;;;;;6.07;3.60;;;;;;;20.54;57.48;102194.34;4996899;28;20029;-68
2022/07/05 10:56:05;;;;;;;6.88;3.25;;;;;;;20.56;55.94;102193.19;4986991;28;20044;-67
2022/07/05 10:58:46;;;;;;;5.97;3.60;;;;;;;20.43;52.38;102188.31;4995276;28;20033;-67
2022/07/05 11:01:11;;;;;;;6.55;3.42;;;;;;;20.40;53.98;102183.34;4998260;28;20050;-68
2022/07/05 11:04:04;;;;;;;5.15;2.80;;;;;;;20.62;53.41;102192.56;4991156;28;20175;-67
2022/07/05 11:06:29;;;;;;;4.53;2.60;;;;;;;20.83;53.03;102193.97;5002304;28;20463;-68
2022/07/05 11:09:02;;;;;;;4.43;2.40;;;;;;;20.85;52.86;102197.25;5005000;28;20363;-68
2022/07/05 11:11:33;;;;;;;5.28;2.67;;;;;;;20.86;52.93;102193.63;5003680;28;20025;-69
2022/07/05 11:14:03;;;;;;;4.50;2.22;;;;;;;20.93;51.37;102198.13;4990564;28;20060;-68
2022/07/05 11:16:31;;;;;;;2.88;2.30;;;;;;;21.01;52.43;102192.03;5002856;28;20056;-68
2022/07/05 11:19:07;;;;;;;5.15;2.20;;;;;;;21.27;53.29;102193.75;5003733;28;20025;-68